NCAR-RAP Real-Time Weather Data

Output produced by METARs form (29 March 2015  06:04 UTC)
found at http://weather.rap.ucar.edu/surface/
 
Conditions at: KSDF observed 29 March 2015  05:56 UTC
Temperature: 0.0°C (32°F)
Dewpoint: -9.4°C (15°F) [RH = 49%]
Pressure (altimeter): 30.36 inches Hg (1028.2 mb)
[Sea-level pressure: 1028.4 mb]
Winds: from the ESE (120 degrees) at 3 MPH (3 knots; 1.6 m/s)
Visibility: 10 or more miles (16+ km)
Ceiling: at least 12,000 feet AGL
Clouds: sky clear below 12,000 feet AGL
Present Weather: no significant weather observed at this time
KSDF 290556Z 12003KT 10SM CLR 00/M09 A3036 RMK AO2 SLP284 T00001094 10039 21006 51003